createdAt,value
2022-09-09T00:00:39.676Z,67.60
2022-09-09T00:03:17.826Z,67.60
2022-09-09T00:05:54.807Z,67.50
2022-09-09T00:08:33.609Z,67.30
2022-09-09T00:11:05.590Z,67.10
2022-09-09T00:13:47.570Z,66.90
2022-09-09T00:16:20.795Z,66.80
2022-09-09T00:19:15.077Z,67.00
2022-09-09T00:22:21.875Z,67.20
2022-09-09T00:24:57.456Z,67.10
2022-09-09T00:27:47.574Z,67.10
2022-09-09T00:30:20.716Z,67.20
2022-09-09T00:32:49.428Z,67.20
2022-09-09T00:35:25.982Z,67.20
2022-09-09T00:37:58.834Z,67.60
2022-09-09T00:40:36.093Z,68.10
2022-09-09T00:43:22.505Z,68.30
2022-09-09T00:46:19.146Z,68.40
2022-09-09T00:49:01.223Z,68.70
2022-09-09T00:51:52.207Z,68.50
2022-09-09T00:54:31.681Z,68.30
2022-09-09T00:57:28.039Z,67.90
2022-09-09T01:00:19.891Z,68.10
2022-09-09T01:02:50.782Z,67.90
2022-09-09T01:05:36.019Z,68.40
2022-09-09T01:08:12.968Z,67.50
2022-09-09T01:10:50.198Z,67.50
2022-09-09T01:13:27.402Z,67.50
2022-09-09T01:15:59.677Z,67.60
2022-09-09T01:18:35.553Z,67.50
2022-09-09T01:21:38.573Z,67.60
2022-09-09T01:24:23.180Z,67.70
2022-09-09T01:27:04.819Z,67.90
2022-09-09T01:29:32.192Z,67.90
2022-09-09T01:32:24.482Z,67.90
2022-09-09T01:34:52.951Z,68.10
2022-09-09T01:37:21.308Z,68.20
2022-09-09T01:39:49.278Z,68.10
2022-09-09T01:42:18.254Z,68.20
2022-09-09T01:44:46.387Z,68.30
2022-09-09T01:47:15.528Z,68.20
2022-09-09T01:49:57.447Z,68.30
2022-09-09T01:52:28.128Z,68.30
2022-09-09T01:54:56.523Z,68.30
2022-09-09T01:57:42.898Z,68.40
2022-09-09T02:00:13.462Z,68.60
2022-09-09T02:03:10.567Z,68.40
2022-09-09T02:05:59.175Z,68.90
2022-09-09T02:08:46.281Z,68.70
2022-09-09T02:11:19.246Z,68.90
2022-09-09T02:14:11.052Z,69.60
2022-09-09T02:17:16.183Z,69.00
2022-09-09T02:20:11.136Z,69.40
2022-09-09T02:22:54.843Z,69.20
2022-09-09T02:25:26.852Z,69.00
2022-09-09T02:28:01.196Z,69.20
2022-09-09T02:30:31.934Z,69.40
2022-09-09T02:33:03.153Z,69.50
2022-09-09T02:36:02.670Z,69.80
2022-09-09T02:38:36.249Z,69.70
2022-09-09T02:41:10.435Z,69.60
2022-09-09T02:43:38.639Z,69.50
2022-09-09T02:46:52.064Z,69.50
2022-09-09T02:50:00.548Z,69.70
2022-09-09T02:52:47.827Z,70.60
2022-09-09T02:55:30.307Z,70.60
2022-09-09T02:58:01.013Z,70.30
2022-09-09T03:00:29.636Z,70.20
2022-09-09T03:03:01.595Z,70.40
2022-09-09T03:05:29.210Z,70.50
2022-09-09T03:07:57.468Z,70.60
2022-09-09T03:10:25.040Z,70.90
2022-09-09T03:12:52.313Z,71.30
2022-09-09T03:15:20.496Z,71.60
2022-09-09T03:17:48.524Z,71.80
2022-09-09T03:20:16.204Z,71.90
2022-09-09T03:22:45.928Z,72.00
2022-09-09T03:25:14.792Z,72.00
2022-09-09T03:27:43.084Z,72.20
2022-09-09T03:30:12.449Z,72.20
2022-09-09T03:32:41.126Z,72.20
2022-09-09T03:35:09.235Z,72.00
2022-09-09T03:37:36.592Z,71.80
2022-09-09T03:40:05.349Z,71.60
2022-09-09T03:42:32.824Z,71.70
2022-09-09T03:45:01.224Z,71.70
2022-09-09T03:47:29.648Z,71.70
2022-09-09T03:50:05.680Z,71.80
2022-09-09T03:52:36.275Z,71.70
2022-09-09T03:55:05.351Z,71.70
2022-09-09T03:57:35.763Z,71.70
2022-09-09T04:00:06.830Z,72.00
2022-09-09T04:02:44.563Z,72.00
2022-09-09T04:05:15.547Z,72.10
2022-09-09T04:07:44.639Z,72.30
2022-09-09T04:10:12.328Z,72.10
2022-09-09T04:12:41.169Z,72.20
2022-09-09T04:15:09.220Z,72.20
2022-09-09T04:17:37.417Z,72.20
2022-09-09T04:20:05.746Z,72.10
2022-09-09T04:22:33.079Z,71.90
2022-09-09T04:25:00.962Z,71.90
2022-09-09T04:27:30.061Z,71.90
2022-09-09T04:29:58.261Z,71.90
2022-09-09T04:32:28.495Z,71.90
2022-09-09T04:34:55.963Z,71.80
2022-09-09T04:37:23.720Z,71.80
2022-09-09T04:39:51.397Z,71.80
2022-09-09T04:42:20.265Z,72.70
2022-09-09T04:44:48.339Z,72.10
2022-09-09T04:47:16.939Z,72.20
2022-09-09T04:49:44.315Z,72.50
2022-09-09T04:52:11.947Z,73.10
2022-09-09T04:54:39.948Z,73.30
2022-09-09T04:57:07.998Z,73.80
2022-09-09T04:59:36.532Z,73.90
2022-09-09T05:02:05.016Z,74.10
2022-09-09T05:04:32.644Z,74.10
2022-09-09T05:07:00.551Z,74.10
2022-09-09T05:09:27.983Z,74.40
2022-09-09T05:11:56.879Z,74.20
2022-09-09T05:14:30.376Z,74.30
2022-09-09T05:16:58.951Z,74.20
2022-09-09T05:19:26.531Z,74.10
2022-09-09T05:21:55.192Z,74.00
2022-09-09T05:24:28.788Z,74.10
2022-09-09T05:27:00.074Z,73.80
2022-09-09T05:29:27.639Z,73.80
2022-09-09T05:31:56.889Z,73.90
2022-09-09T05:34:25.408Z,74.00
2022-09-09T05:36:53.711Z,73.80
2022-09-09T05:39:23.320Z,73.80
2022-09-09T05:41:50.912Z,73.80
2022-09-09T05:44:18.600Z,73.70
2022-09-09T05:46:46.966Z,73.70
2022-09-09T05:49:16.272Z,73.60
2022-09-09T05:51:44.862Z,73.50
2022-09-09T05:54:16.491Z,73.50
2022-09-09T05:56:51.602Z,73.40
2022-09-09T05:59:19.730Z,73.20
2022-09-09T06:01:47.911Z,72.80
2022-09-09T06:04:23.431Z,72.70
2022-09-09T06:06:51.003Z,72.50
2022-09-09T06:09:20.328Z,72.40
2022-09-09T06:11:47.750Z,72.60
2022-09-09T06:14:16.056Z,72.50
2022-09-09T06:16:47.074Z,72.50
2022-09-09T06:19:27.727Z,73.00
2022-09-09T06:21:57.435Z,72.20
2022-09-09T06:24:25.234Z,72.00
2022-09-09T06:26:52.737Z,71.20
2022-09-09T06:29:24.643Z,70.90
2022-09-09T06:31:53.434Z,71.20
2022-09-09T06:34:24.039Z,70.90
2022-09-09T06:36:58.599Z,69.90
2022-09-09T06:39:27.144Z,68.30
2022-09-09T06:41:58.564Z,67.60
2022-09-09T06:44:45.964Z,66.80
2022-09-09T06:47:20.172Z,65.70
2022-09-09T06:49:48.811Z,64.60
2022-09-09T06:52:19.189Z,63.80
2022-09-09T06:54:48.451Z,61.30
2022-09-09T07:00:08.149Z,57.30
2022-09-09T07:02:39.844Z,54.80
2022-09-09T07:05:10.513Z,52.70
2022-09-09T07:07:38.960Z,52.30
2022-09-09T07:10:08.427Z,52.10
2022-09-09T07:12:38.061Z,51.90
2022-09-09T07:15:06.143Z,51.70
2022-09-09T07:17:33.656Z,52.00
2022-09-09T07:20:02.896Z,52.60
2022-09-09T07:22:30.606Z,53.50
2022-09-09T07:24:58.300Z,54.40
2022-09-09T07:27:27.672Z,55.10
2022-09-09T07:29:55.311Z,56.10
2022-09-09T07:32:22.931Z,56.60
2022-09-09T07:34:51.520Z,57.30
2022-09-09T07:37:18.923Z,57.90
2022-09-09T07:39:47.943Z,58.30
2022-09-09T07:42:15.973Z,58.40
2022-09-09T07:44:43.604Z,58.70
2022-09-09T07:47:14.793Z,58.90
2022-09-09T07:49:50.829Z,58.70
2022-09-09T07:52:23.146Z,59.20
2022-09-09T07:54:55.023Z,59.20
2022-09-09T07:57:22.703Z,59.30
2022-09-09T07:59:51.625Z,59.80
2022-09-09T08:02:19.404Z,60.80
2022-09-09T08:04:47.314Z,61.50
2022-09-09T08:07:17.336Z,60.70
2022-09-09T08:09:50.633Z,61.00
2022-09-09T08:12:24.528Z,60.50
2022-09-09T08:14:55.438Z,60.40
2022-09-09T08:17:23.806Z,58.70
2022-09-09T08:19:52.283Z,57.00
2022-09-09T08:22:25.880Z,55.50
2022-09-09T08:24:53.250Z,53.50
2022-09-09T08:27:21.112Z,52.20
2022-09-09T08:29:49.067Z,51.30
2022-09-09T08:32:18.060Z,50.50
2022-09-09T08:34:48.457Z,49.00
2022-09-09T08:37:21.422Z,48.20
2022-09-09T08:39:53.920Z,46.40
2022-09-09T08:42:44.720Z,44.90
2022-09-09T08:45:32.289Z,44.40
2022-09-09T08:48:17.627Z,43.90
2022-09-09T08:50:47.868Z,42.80
2022-09-09T08:53:26.759Z,40.00
2022-09-09T08:56:02.083Z,39.10
2022-09-09T08:58:46.487Z,38.80
2022-09-09T09:01:50.946Z,37.50
2022-09-09T09:04:50.836Z,37.50
2022-09-09T09:07:29.502Z,37.60
2022-09-09T09:10:44.007Z,37.30
2022-09-09T09:13:34.588Z,37.80
2022-09-09T09:16:14.865Z,38.10
2022-09-09T09:18:43.321Z,38.00
2022-09-09T09:21:22.210Z,38.50
2022-09-09T09:24:00.783Z,38.70
2022-09-09T09:26:36.612Z,39.10
2022-09-09T09:29:16.632Z,40.50
2022-09-09T09:31:53.121Z,40.50
2022-09-09T09:34:20.623Z,40.90
2022-09-09T09:36:58.287Z,41.80
2022-09-09T09:42:21.760Z,41.30
2022-09-09T09:44:53.242Z,41.10
2022-09-09T09:47:27.986Z,40.70
2022-09-09T09:50:20.341Z,40.80
2022-09-09T09:52:58.558Z,40.90
2022-09-09T09:55:30.911Z,40.70
2022-09-09T09:58:07.471Z,40.70
2022-09-09T10:00:49.384Z,40.50
2022-09-09T10:03:38.575Z,40.00
2022-09-09T10:06:07.792Z,39.80
2022-09-09T10:08:47.466Z,40.10
2022-09-09T10:11:27.958Z,40.00
2022-09-09T10:14:36.369Z,40.60
2022-09-09T10:17:14.936Z,41.50
2022-09-09T10:19:56.087Z,41.80
2022-09-09T10:22:35.164Z,41.70
2022-09-09T10:25:07.593Z,41.90
2022-09-09T10:27:57.510Z,42.50
2022-09-09T10:30:59.750Z,42.60
2022-09-09T10:33:45.868Z,42.00
2022-09-09T10:36:44.013Z,41.80
2022-09-09T10:39:42.127Z,42.10
2022-09-09T10:42:15.289Z,42.30
2022-09-09T10:44:59.594Z,41.90
2022-09-09T10:47:59.189Z,41.80
2022-09-09T10:51:07.130Z,42.00
2022-09-09T10:53:55.251Z,41.20
2022-09-09T10:56:24.979Z,41.70
2022-09-09T10:59:17.585Z,41.70
2022-09-09T11:02:01.161Z,42.20
2022-09-09T11:04:35.110Z,42.20
2022-09-09T11:07:11.890Z,42.30
2022-09-09T11:09:46.726Z,41.60
2022-09-09T11:12:19.907Z,41.70
2022-09-09T11:14:56.012Z,41.90
2022-09-09T11:17:34.633Z,41.90
2022-09-09T11:20:02.077Z,43.10
2022-09-09T11:22:41.673Z,44.40
2022-09-09T11:25:16.634Z,45.50
2022-09-09T11:28:16.510Z,44.80
2022-09-09T11:31:13.294Z,46.40
2022-09-09T11:33:48.079Z,46.90
2022-09-09T11:36:35.660Z,48.00
2022-09-09T11:39:25.912Z,48.40
2022-09-09T11:41:53.127Z,49.20
2022-09-09T11:44:31.740Z,49.20
2022-09-09T11:46:59.108Z,49.40
2022-09-09T11:49:43.661Z,50.00
2022-09-09T11:52:26.663Z,48.60
2022-09-09T11:54:56.287Z,47.60
2022-09-09T11:57:33.454Z,47.70
2022-09-09T12:00:01.418Z,47.10
2022-09-09T12:02:33.101Z,46.90
2022-09-09T12:05:13.305Z,47.10
2022-09-09T12:07:47.616Z,46.90
2022-09-09T12:10:28.153Z,47.50
2022-09-09T12:12:55.556Z,47.90
2022-09-09T12:15:29.901Z,50.90
2022-09-09T12:18:03.120Z,52.00
2022-09-09T12:20:32.438Z,51.30
2022-09-09T12:23:39.778Z,52.40
2022-09-09T12:26:29.166Z,53.50
2022-09-09T12:29:12.973Z,55.70
2022-09-09T12:32:05.469Z,56.50
2022-09-09T12:34:53.348Z,56.70
2022-09-09T12:37:30.143Z,55.50
2022-09-09T12:40:03.738Z,55.70
2022-09-09T12:42:35.944Z,54.80
2022-09-09T12:45:21.406Z,54.80
2022-09-09T12:47:57.939Z,55.80
2022-09-09T12:50:28.494Z,56.90
2022-09-09T12:52:59.490Z,56.60
2022-09-09T12:55:31.817Z,55.30
2022-09-09T12:58:01.118Z,57.10
2022-09-09T13:00:29.294Z,56.90
2022-09-09T13:03:00.210Z,56.30
2022-09-09T13:05:34.695Z,55.50
2022-09-09T13:08:04.070Z,56.60
2022-09-09T13:10:51.688Z,57.30
2022-09-09T13:13:26.732Z,57.50
2022-09-09T13:15:59.407Z,58.00
2022-09-09T13:18:39.073Z,57.60
2022-09-09T13:21:06.895Z,56.70
2022-09-09T13:23:37.684Z,57.50
2022-09-09T13:26:25.500Z,58.10
2022-09-09T13:28:54.682Z,58.50
2022-09-09T13:31:28.843Z,58.40
2022-09-09T13:33:56.852Z,58.30
2022-09-09T13:36:32.797Z,57.60
2022-09-09T13:39:01.636Z,57.10
2022-09-09T13:41:37.275Z,55.40
2022-09-09T13:44:07.362Z,53.00
2022-09-09T13:46:44.002Z,53.50
2022-09-09T13:49:11.228Z,54.00
2022-09-09T13:51:43.220Z,53.80
2022-09-09T13:54:11.835Z,53.30
2022-09-09T13:56:40.509Z,53.90
2022-09-09T13:59:13.788Z,53.80
2022-09-09T14:01:42.378Z,53.00
2022-09-09T14:04:10.461Z,52.90
2022-09-09T14:06:39.247Z,52.40
2022-09-09T14:09:08.616Z,53.50
2022-09-09T14:11:36.340Z,53.80
2022-09-09T14:14:03.942Z,53.60
2022-09-09T14:16:31.771Z,53.00
2022-09-09T14:19:00.123Z,53.00
2022-09-09T14:21:28.660Z,53.10
2022-09-09T14:23:58.821Z,53.00
2022-09-09T14:26:27.249Z,52.40
2022-09-09T14:28:55.887Z,52.00
2022-09-09T14:31:25.215Z,52.70
2022-09-09T14:33:53.603Z,52.60
2022-09-09T14:36:21.405Z,52.30
2022-09-09T14:38:49.120Z,51.30
2022-09-09T14:41:18.770Z,50.70
2022-09-09T14:43:46.847Z,50.40
2022-09-09T14:46:19.397Z,50.50
2022-09-09T14:48:49.574Z,50.60
2022-09-09T14:51:24.277Z,50.80
2022-09-09T14:53:56.772Z,50.00
2022-09-09T14:56:28.227Z,50.50
2022-09-09T14:58:57.367Z,50.30
2022-09-09T15:01:28.230Z,50.20
2022-09-09T15:04:01.391Z,50.60
2022-09-09T15:06:34.232Z,50.50
2022-09-09T15:09:02.463Z,50.20
2022-09-09T15:11:38.483Z,50.30
2022-09-09T15:14:07.776Z,50.30
2022-09-09T15:16:36.091Z,50.40
2022-09-09T15:19:04.250Z,49.70
2022-09-09T15:21:36.683Z,50.10
2022-09-09T15:24:05.440Z,50.20
2022-09-09T15:26:33.152Z,50.60
2022-09-09T15:29:00.967Z,50.90
2022-09-09T15:31:31.367Z,50.60
2022-09-09T15:34:04.522Z,51.00
2022-09-09T15:36:43.900Z,50.60
2022-09-09T15:39:16.357Z,51.30
2022-09-09T15:41:47.950Z,51.60
2022-09-09T15:44:16.731Z,52.50
2022-09-09T15:46:52.253Z,51.20
2022-09-09T15:49:27.346Z,51.30
2022-09-09T15:52:00.352Z,51.20
2022-09-09T15:54:27.677Z,50.80
2022-09-09T15:56:57.766Z,51.10
2022-09-09T15:59:26.976Z,51.40
2022-09-09T16:01:55.731Z,51.50
2022-09-09T16:04:24.644Z,51.40
2022-09-09T16:06:54.353Z,51.50
2022-09-09T16:09:22.179Z,52.10
2022-09-09T16:11:49.916Z,53.40
2022-09-09T16:14:18.624Z,54.10
2022-09-09T16:16:45.939Z,55.00
2022-09-09T16:19:14.011Z,55.30
2022-09-09T16:21:44.182Z,55.60
2022-09-09T16:24:15.364Z,55.80
2022-09-09T16:26:47.539Z,57.00
2022-09-09T16:29:16.501Z,56.40
2022-09-09T16:31:45.134Z,56.50
2022-09-09T16:34:13.099Z,56.90
2022-09-09T16:36:42.416Z,57.30
2022-09-09T16:39:15.419Z,57.90
2022-09-09T16:41:44.918Z,58.20
2022-09-09T16:44:13.818Z,58.60
2022-09-09T16:46:42.891Z,57.40
2022-09-09T16:49:12.698Z,58.80
2022-09-09T16:51:42.832Z,59.80
2022-09-09T16:54:12.054Z,59.30
2022-09-09T16:56:44.394Z,59.20
2022-09-09T16:59:14.435Z,59.10
2022-09-09T17:01:44.182Z,58.80
2022-09-09T17:04:16.374Z,58.40
2022-09-09T17:06:48.288Z,58.70
2022-09-09T17:09:16.163Z,59.30
2022-09-09T17:11:46.233Z,59.20
2022-09-09T17:14:17.226Z,59.20
2022-09-09T17:16:44.606Z,59.50
2022-09-09T17:19:12.758Z,59.40
2022-09-09T17:21:55.005Z,59.40
2022-09-09T17:24:29.779Z,59.60
2022-09-09T17:26:58.382Z,59.50
2022-09-09T17:29:26.496Z,59.80
2022-09-09T17:31:54.363Z,59.90
2022-09-09T17:34:22.314Z,59.80
2022-09-09T17:36:49.824Z,59.90
2022-09-09T17:39:17.211Z,59.90
2022-09-09T17:41:44.457Z,60.30
2022-09-09T17:44:12.289Z,60.30
2022-09-09T17:46:41.996Z,60.00
2022-09-09T17:49:18.352Z,59.90
2022-09-09T17:51:46.894Z,60.50
2022-09-09T17:54:23.291Z,61.10
2022-09-09T17:56:50.689Z,61.70
2022-09-09T17:59:18.884Z,61.30
2022-09-09T18:01:49.676Z,61.70
2022-09-09T18:04:18.093Z,61.80
2022-09-09T18:06:52.581Z,61.80
2022-09-09T18:09:23.386Z,62.40
2022-09-09T18:11:54.244Z,62.50
2022-09-09T18:14:25.349Z,62.50
2022-09-09T18:16:53.653Z,63.00
2022-09-09T18:19:24.519Z,63.10
2022-09-09T18:21:51.963Z,63.00
2022-09-09T18:24:21.944Z,63.00
2022-09-09T18:26:50.752Z,63.00
2022-09-09T18:29:25.145Z,63.10
2022-09-09T18:31:53.914Z,63.40
2022-09-09T18:34:22.678Z,63.30
2022-09-09T18:36:54.970Z,63.30
2022-09-09T18:39:28.855Z,63.70
2022-09-09T18:42:02.560Z,64.10
2022-09-09T18:44:33.809Z,64.10
2022-09-09T18:47:01.660Z,64.20
2022-09-09T18:49:29.854Z,64.10
2022-09-09T18:51:57.880Z,64.10
2022-09-09T18:54:30.252Z,64.10
2022-09-09T18:57:00.560Z,64.40
2022-09-09T18:59:28.879Z,64.60
2022-09-09T19:01:56.861Z,64.70
2022-09-09T19:04:25.259Z,64.70
2022-09-09T19:06:58.094Z,64.60
2022-09-09T19:09:29.243Z,65.00
2022-09-09T19:11:57.547Z,65.10
2022-09-09T19:14:25.397Z,65.20
2022-09-09T19:16:53.586Z,65.20
2022-09-09T19:19:23.832Z,65.50
2022-09-09T19:21:57.397Z,65.90
2022-09-09T19:24:27.614Z,66.20
2022-09-09T19:27:01.857Z,66.00
2022-09-09T19:29:32.341Z,66.40
2022-09-09T19:32:42.385Z,66.30
2022-09-09T19:34:50.937Z,66.70
2022-09-09T19:37:18.957Z,66.90
2022-09-09T19:39:47.502Z,66.80
2022-09-09T19:42:15.143Z,67.00
2022-09-09T19:44:42.772Z,67.20
2022-09-09T19:47:10.224Z,67.30
2022-09-09T19:49:38.499Z,67.40
2022-09-09T19:52:07.389Z,67.50
2022-09-09T19:54:35.363Z,67.60
2022-09-09T19:57:02.642Z,67.70
2022-09-09T19:59:30.266Z,67.80
2022-09-09T20:01:58.453Z,68.00
2022-09-09T20:04:26.417Z,68.20
2022-09-09T20:06:54.336Z,68.40
2022-09-09T20:09:22.355Z,68.50
2022-09-09T20:11:50.168Z,68.20
2022-09-09T20:14:19.029Z,68.40
2022-09-09T20:16:46.766Z,68.50
2022-09-09T20:19:18.210Z,68.30
2022-09-09T20:21:49.352Z,68.60
2022-09-09T20:24:19.472Z,68.90
2022-09-09T20:26:48.223Z,68.80
2022-09-09T20:29:19.250Z,69.60
2022-09-09T20:31:48.107Z,68.80
2022-09-09T20:34:18.877Z,68.50
2022-09-09T20:36:46.727Z,68.30
2022-09-09T20:39:16.418Z,68.10
2022-09-09T20:41:46.084Z,68.10
2022-09-09T20:44:19.944Z,68.30
2022-09-09T20:46:49.999Z,68.20
2022-09-09T20:49:20.002Z,68.10
2022-09-09T20:51:50.230Z,68.00
2022-09-09T20:54:26.053Z,68.10
2022-09-09T20:56:57.543Z,68.30
2022-09-09T20:59:27.198Z,68.10
2022-09-09T21:01:57.028Z,68.10
2022-09-09T21:04:25.120Z,68.00
2022-09-09T21:06:52.832Z,68.30
2022-09-09T21:09:22.426Z,68.40
2022-09-09T21:11:49.866Z,68.30
2022-09-09T21:14:17.398Z,68.50
2022-09-09T21:16:45.733Z,68.70
2022-09-09T21:19:13.088Z,69.10
2022-09-09T21:21:40.670Z,68.70
2022-09-09T21:24:09.303Z,68.80
2022-09-09T21:26:36.952Z,69.00
2022-09-09T21:29:04.370Z,69.10
2022-09-09T21:31:32.024Z,69.30
2022-09-09T21:33:59.824Z,69.20
2022-09-09T21:36:28.273Z,69.60
2022-09-09T21:38:58.953Z,69.60
2022-09-09T21:41:26.432Z,69.90
2022-09-09T21:43:55.241Z,70.90
2022-09-09T21:46:23.300Z,70.20
2022-09-09T21:48:51.103Z,70.40
2022-09-09T21:51:19.152Z,70.40
2022-09-09T21:53:46.514Z,70.60
2022-09-09T21:56:19.164Z,70.80
2022-09-09T21:58:47.226Z,71.10
2022-09-09T22:01:17.845Z,71.10
2022-09-09T22:03:45.963Z,71.30
2022-09-09T22:06:15.633Z,71.30
2022-09-09T22:08:43.586Z,71.40
2022-09-09T22:11:22.198Z,71.30
2022-09-09T22:13:50.679Z,71.30
2022-09-09T22:16:20.916Z,71.20
2022-09-09T22:18:53.967Z,71.30
2022-09-09T22:21:22.762Z,71.10
2022-09-09T22:23:53.066Z,71.00
2022-09-09T22:26:21.305Z,71.30
2022-09-09T22:28:49.314Z,71.20
2022-09-09T22:31:17.091Z,71.10
2022-09-09T22:33:44.807Z,71.10
2022-09-09T22:36:12.537Z,71.10
2022-09-09T22:38:40.276Z,71.30
2022-09-09T22:41:07.797Z,71.40
2022-09-09T22:43:36.364Z,71.40
2022-09-09T22:46:04.351Z,71.40
2022-09-09T22:48:33.379Z,71.40
2022-09-09T22:51:08.770Z,71.40
2022-09-09T22:53:36.754Z,71.50
2022-09-09T22:56:07.521Z,71.50
2022-09-09T22:58:36.929Z,71.30
2022-09-09T23:01:14.799Z,71.50
2022-09-09T23:03:45.882Z,71.70
2022-09-09T23:06:21.977Z,71.60
2022-09-09T23:08:58.523Z,71.70
2022-09-09T23:11:28.998Z,71.50
2022-09-09T23:14:00.190Z,71.40
2022-09-09T23:16:32.772Z,71.30
2022-09-09T23:19:01.212Z,71.20
2022-09-09T23:21:30.599Z,71.10
2022-09-09T23:23:59.766Z,71.20
2022-09-09T23:26:29.620Z,71.30
2022-09-09T23:28:59.071Z,71.10
2022-09-09T23:31:29.136Z,71.30
2022-09-09T23:33:58.080Z,71.20
2022-09-09T23:36:26.475Z,71.20
2022-09-09T23:38:56.034Z,71.40
2022-09-09T23:41:23.971Z,71.70
2022-09-09T23:43:53.072Z,71.90
2022-09-09T23:46:23.768Z,72.10
2022-09-09T23:48:51.772Z,72.20
2022-09-09T23:51:23.742Z,72.20
2022-09-09T23:53:53.697Z,72.30
2022-09-09T23:56:22.574Z,72.10
2022-09-09T23:58:50.525Z,72.00
